Weather at San Francisco International Airport

Public forecast

Using degrees Fahrenheit for public forecast. Weather courtesy of forecast.io.

Current aviation weather report (METAR) for San Francisco International Airport

2023/02/02 17:56 (retrieved 29 minutes ago)

KSFO 021756Z 16005KT 10SM SCT140 OVC200 09/03 A3027 RMK AO2 SLP250 T00890033 10089 20044 51008

Aviation forecast (TAF) for San Francisco International Airport

2023/02/02 18:42 (retrieved 0 seconds ago)

TAF KSFO 021739Z 0218/0324 VRB04KT P6SM BKN200 FM022200 19015G30KT P6SM BKN150 FM030300 13008KT P6SM BKN150 FM030500 14013KT P6SM BKN150 FM031300 17010KT 5SM -SHRA OVC020 FM031600 26008KT 5SM BR VCSH OVC020 FM032000 10005KT 5SM BR VCSH BKN100